Raymond, Ohio
Current Conditions -  °F | °C
As of 2:13 PM on Thursday 18 Dec 2014 (Local Time) from KMRT Reporting Station
Overcast Overcast  
Wind Chill: 21°   Ceiling: 1500
Heat Index: 28°   Visibility: 10mi
Dew Point: 21°   Wind: 7mph
Humidity: 76%   Direction: 280°W
Pressure: 30.21"   Gusts: NA
Location:  40.33°N, 83.47°W
Report Text: KMRT 181913Z AUTO 28006KT 10SM OVC015 M02/M06 A3021 RMK AO2 T10231060
Loading
Personal Weather Stations






























Interactive Weather Map New forecast layout! Learn more

10-Day Weather Forecast

Advertisements
Track Severe Weather on mobile